PWSweather.com
Personal Weather Stations
Station Observations
VPOKROGLO
Kal Nad Kanalom, PrimorskaSI

Kal Nad KanalomPrimorskaSI

Lat: 46.072, Lon: 13.734

Elevation: 2526

Station Type: WS-2355

http://www.okroglovreme.com

Latest ConditionsUpdated 8:45:00 PM GMT+01:01 Sunday, Nov 19, 2017
Currently Today's Max Today's Min Today's Average
Temperature 39.4°F4.1°C 54.5°F12.5°C 34.7°F1.5°C 41.5°F5.3°C
Dew Point 24.5°F-4.2°C 38.6°F3.7°C 24.5°F-4.2°C 30.5°F-0.8°C
Winds 2.2 mph N3.5 kmh N 3.4 mph W5.5 kmh W - 1.2 mph 1.9 kmh
Wind Gusts 6.7 mph10.8 kmh 8.1 mph13.0 kmh - -
Humidity 55% 77% 52% 65%
Pressure 29.87 in1011.5 mb 29.91 in1012.9 mb 29.75 in1007.5 mb -
Hour Temp Dew Point Humidity Winds Wind Gusts Pressure Precip Precip Rate Daily Precip Total
08:45 PM 39.4°F4.1°C 24.5°F-4.2°C 55% 2.2 mph N3.5 kmh N 6.7 mph10.8 kmh 29.87 in1011.5 mb 0.00 in0.0 mm 0.00 in0.0 mm 0.00 in0.0 mm
08:30 PM 38.5°F3.6°C 25.4°F-3.7°C 59% 1.3 mph NNE2.1 kmh NNE 2.9 mph4.7 kmh 29.87 in1011.5 mb 0.00 in0.0 mm 0.00 in0.0 mm 0.00 in0.0 mm
08:15 PM 39.0°F3.9°C 25.5°F-3.6°C 58% 1.4 mph NE2.3 kmh NE 3.8 mph6.1 kmh 29.87 in1011.5 mb 0.00 in0.0 mm 0.00 in0.0 mm 0.00 in0.0 mm
08:00 PM 39.0°F3.9°C 25.9°F-3.4°C 59% 2.5 mph SW4.0 kmh SW 4.3 mph6.9 kmh 29.87 in1011.5 mb 0.00 in0.0 mm 0.00 in0.0 mm 0.00 in0.0 mm
07:45 PM 39.0°F3.9°C 26.7°F-2.9°C 61% 1.8 mph SW2.9 kmh SW 3.4 mph5.5 kmh 29.86 in1011.2 mb 0.00 in0.0 mm 0.00 in0.0 mm 0.00 in0.0 mm
07:30 PM 38.8°F3.8°C 27.3°F-2.6°C 63% 0.2 mph SW0.3 kmh SW 2.5 mph4.0 kmh 29.86 in1011.2 mb 0.00 in0.0 mm 0.00 in0.0 mm 0.00 in0.0 mm
07:15 PM 39.6°F4.2°C 28.0°F-2.2°C 63% 0.8 mph SW1.3 kmh SW 3.4 mph5.5 kmh 29.86 in1011.2 mb 0.00 in0.0 mm 0.00 in0.0 mm 0.00 in0.0 mm
07:00 PM 39.7°F4.3°C 28.5°F-1.9°C 64% 1.7 mph NNE2.7 kmh NNE 4.3 mph6.9 kmh 29.85 in1010.8 mb 0.00 in0.0 mm 0.00 in0.0 mm 0.00 in0.0 mm
06:45 PM 39.7°F4.3°C 28.9°F-1.7°C 65% 2.1 mph N3.4 kmh N 6.0 mph9.7 kmh 29.85 in1010.8 mb 0.00 in0.0 mm 0.00 in0.0 mm 0.00 in0.0 mm
06:30 PM 39.9°F4.4°C 29.8°F-1.2°C 67% 1.9 mph NW3.1 kmh NW 5.8 mph9.3 kmh 29.84 in1010.5 mb 0.00 in0.0 mm 0.00 in0.0 mm 0.00 in0.0 mm
06:15 PM 39.7°F4.3°C 30.0°F-1.1°C 68% 1.1 mph N1.8 kmh N 3.6 mph5.8 kmh 29.84 in1010.5 mb 0.00 in0.0 mm 0.00 in0.0 mm 0.00 in0.0 mm
06:00 PM 39.9°F4.4°C 29.8°F-1.2°C 67% 1.4 mph N2.3 kmh N 4.0 mph6.4 kmh 29.83 in1010.2 mb 0.00 in0.0 mm 0.00 in0.0 mm 0.00 in0.0 mm
05:45 PM 39.9°F4.4°C 29.8°F-1.2°C 67% 1.2 mph N1.9 kmh N 4.0 mph6.4 kmh 29.83 in1010.2 mb 0.00 in0.0 mm 0.00 in0.0 mm 0.00 in0.0 mm
05:30 PM 40.1°F4.5°C 30.0°F-1.1°C 67% 1.3 mph NNE2.1 kmh NNE 2.7 mph4.3 kmh 29.81 in1009.5 mb 0.00 in0.0 mm 0.00 in0.0 mm 0.00 in0.0 mm
05:15 PM 41.4°F5.2°C 30.8°F-0.7°C 66% 0.3 mph NNE0.5 kmh NNE 2.0 mph3.2 kmh 29.80 in1009.1 mb 0.00 in0.0 mm 0.00 in0.0 mm 0.00 in0.0 mm
05:00 PM 41.2°F5.1°C 30.7°F-0.7°C 66% 1.1 mph NNE1.8 kmh NNE 3.1 mph5.0 kmh 29.79 in1008.8 mb 0.00 in0.0 mm 0.00 in0.0 mm 0.00 in0.0 mm
04:45 PM 42.4°F5.8°C 31.5°F-0.3°C 65% 0.1 mph NW0.2 kmh NW 1.1 mph1.8 kmh 29.78 in1008.5 mb 0.00 in0.0 mm 0.00 in0.0 mm 0.00 in0.0 mm
04:30 PM 43.2°F6.2°C 31.4°F-0.3°C 63% 0.2 mph NW0.3 kmh NW 1.6 mph2.6 kmh 29.78 in1008.5 mb 0.00 in0.0 mm 0.00 in0.0 mm 0.00 in0.0 mm
04:15 PM 44.4°F6.9°C 32.2°F0.1°C 62% 0.3 mph NW0.5 kmh NW 2.2 mph3.5 kmh 29.77 in1008.1 mb 0.00 in0.0 mm 0.00 in0.0 mm 0.00 in0.0 mm
04:00 PM 45.1°F7.3°C 32.9°F0.5°C 62% Calm Calm -- 29.76 in1007.8 mb 0.00 in0.0 mm 0.00 in0.0 mm 0.00 in0.0 mm
03:45 PM 46.0°F7.8°C 32.9°F0.5°C 60% 0.7 mph NW1.1 kmh NW 2.9 mph4.7 kmh 29.77 in1008.1 mb 0.00 in0.0 mm 0.00 in0.0 mm 0.00 in0.0 mm
03:30 PM 46.8°F8.2°C 33.6°F0.9°C 60% 1.2 mph W1.9 kmh W 4.5 mph7.2 kmh 29.76 in1007.8 mb 0.00 in0.0 mm 0.00 in0.0 mm 0.00 in0.0 mm
03:15 PM 46.8°F8.2°C 33.6°F0.9°C 60% 1.3 mph W2.1 kmh W 6.0 mph9.7 kmh 29.76 in1007.8 mb 0.00 in0.0 mm 0.00 in0.0 mm 0.00 in0.0 mm
03:00 PM 47.3°F8.5°C 32.8°F0.4°C 57% 2.9 mph W4.7 kmh W 6.9 mph11.1 kmh 29.75 in1007.5 mb 0.00 in0.0 mm 0.00 in0.0 mm 0.00 in0.0 mm
02:45 PM 49.8°F9.9°C 34.7°F1.5°C 56% 3.0 mph W4.8 kmh W 8.1 mph13.0 kmh 29.75 in1007.5 mb 0.00 in0.0 mm 0.00 in0.0 mm 0.00 in0.0 mm
02:30 PM 51.1°F10.6°C 35.0°F1.7°C 54% 2.0 mph W3.2 kmh W 5.1 mph8.2 kmh 29.75 in1007.5 mb 0.00 in0.0 mm 0.00 in0.0 mm 0.00 in0.0 mm
02:15 PM 52.0°F11.1°C 35.8°F2.1°C 54% 3.4 mph W5.5 kmh W 8.1 mph13.0 kmh 29.75 in1007.5 mb 0.00 in0.0 mm 0.00 in0.0 mm 0.00 in0.0 mm
02:00 PM 52.0°F11.1°C 36.3°F2.4°C 55% 2.0 mph W3.2 kmh W 6.3 mph10.1 kmh 29.75 in1007.5 mb 0.00 in0.0 mm 0.00 in0.0 mm 0.00 in0.0 mm
01:45 PM 51.8°F11.0°C 35.2°F1.8°C 53% 2.0 mph NW3.2 kmh NW 4.3 mph6.9 kmh 29.75 in1007.5 mb 0.00 in0.0 mm 0.00 in0.0 mm 0.00 in0.0 mm
01:30 PM 53.2°F11.8°C 36.5°F2.5°C 53% 2.2 mph NW3.5 kmh NW 4.5 mph7.2 kmh 29.75 in1007.5 mb 0.00 in0.0 mm 0.00 in0.0 mm 0.00 in0.0 mm
01:15 PM 54.5°F12.5°C 37.2°F2.9°C 52% 1.7 mph WNW2.7 kmh WNW 4.3 mph6.9 kmh 29.75 in1007.5 mb 0.00 in0.0 mm 0.00 in0.0 mm 0.00 in0.0 mm
01:00 PM 53.4°F11.9°C 36.7°F2.6°C 53% 2.5 mph WNW4.0 kmh WNW 5.4 mph8.7 kmh 29.75 in1007.5 mb 0.00 in0.0 mm 0.00 in0.0 mm 0.00 in0.0 mm
12:45 PM 53.8°F12.1°C 38.0°F3.3°C 55% 1.7 mph NW2.7 kmh NW 4.5 mph7.2 kmh 29.75 in1007.5 mb 0.00 in0.0 mm 0.00 in0.0 mm 0.00 in0.0 mm
12:30 PM 52.7°F11.5°C 37.0°F2.8°C 55% 2.0 mph NW3.2 kmh NW 3.8 mph6.1 kmh 29.76 in1007.8 mb 0.00 in0.0 mm 0.00 in0.0 mm 0.00 in0.0 mm
12:15 PM 51.6°F10.9°C 36.9°F2.7°C 57% 1.9 mph NW3.1 kmh NW 4.7 mph7.6 kmh 29.76 in1007.8 mb 0.00 in0.0 mm 0.00 in0.0 mm 0.00 in0.0 mm
12:00 PM 51.1°F10.6°C 36.4°F2.4°C 57% 1.1 mph NW1.8 kmh NW 4.9 mph7.9 kmh 29.77 in1008.1 mb 0.00 in0.0 mm 0.00 in0.0 mm 0.00 in0.0 mm
11:45 AM 51.4°F10.8°C 37.1°F2.8°C 58% 0.5 mph NW0.8 kmh NW 2.7 mph4.3 kmh 29.78 in1008.5 mb 0.00 in0.0 mm 0.00 in0.0 mm 0.00 in0.0 mm
11:30 AM 52.5°F11.4°C 38.6°F3.7°C 59% 1.0 mph NW1.6 kmh NW 3.1 mph5.0 kmh 29.78 in1008.5 mb 0.00 in0.0 mm 0.00 in0.0 mm 0.00 in0.0 mm
11:15 AM 47.5°F8.6°C 35.5°F1.9°C 63% 0.8 mph NNW1.3 kmh NNW 3.4 mph5.5 kmh 29.79 in1008.8 mb 0.00 in0.0 mm 0.00 in0.0 mm 0.00 in0.0 mm
11:00 AM 46.0°F7.8°C 34.9°F1.6°C 65% 0.1 mph N0.2 kmh N 1.1 mph1.8 kmh 29.79 in1008.8 mb 0.00 in0.0 mm 0.00 in0.0 mm 0.00 in0.0 mm
10:45 AM 43.2°F6.2°C 32.6°F0.3°C 66% Calm Calm -- 29.80 in1009.1 mb 0.00 in0.0 mm 0.00 in0.0 mm 0.00 in0.0 mm
10:30 AM 41.5°F5.3°C 31.8°F-0.1°C 68% 1.4 mph NNW2.3 kmh NNW 4.0 mph6.4 kmh 29.81 in1009.5 mb 0.00 in0.0 mm 0.00 in0.0 mm 0.00 in0.0 mm
10:15 AM 39.4°F4.1°C 29.7°F-1.3°C 68% 0.1 mph N0.2 kmh N 1.3 mph2.1 kmh 29.80 in1009.1 mb 0.00 in0.0 mm 0.00 in0.0 mm 0.00 in0.0 mm
10:00 AM 40.3°F4.6°C 30.6°F-0.8°C 68% 1.4 mph NNW2.3 kmh NNW 4.0 mph6.4 kmh 29.81 in1009.5 mb 0.00 in0.0 mm 0.00 in0.0 mm 0.00 in0.0 mm
09:45 AM 40.1°F4.5°C 30.4°F-0.9°C 68% Calm Calm -- 29.80 in1009.1 mb 0.00 in0.0 mm 0.00 in0.0 mm 0.00 in0.0 mm
09:30 AM 39.4°F4.1°C 29.7°F-1.3°C 68% 0.5 mph NW0.8 kmh NW 2.0 mph3.2 kmh 29.81 in1009.5 mb 0.00 in0.0 mm 0.00 in0.0 mm 0.00 in0.0 mm
09:15 AM 39.9°F4.4°C 29.8°F-1.2°C 67% 0.9 mph N1.4 kmh N 3.6 mph5.8 kmh 29.82 in1009.8 mb 0.00 in0.0 mm 0.00 in0.0 mm 0.00 in0.0 mm
09:00 AM 39.6°F4.2°C 29.5°F-1.4°C 67% 0.5 mph NE0.8 kmh NE 2.0 mph3.2 kmh 29.82 in1009.8 mb 0.00 in0.0 mm 0.00 in0.0 mm 0.00 in0.0 mm
08:45 AM 38.8°F3.8°C 29.2°F-1.6°C 68% 0.7 mph NNE1.1 kmh NNE 2.2 mph3.5 kmh 29.82 in1009.8 mb 0.00 in0.0 mm 0.00 in0.0 mm 0.00 in0.0 mm
08:30 AM 38.7°F3.7°C 29.0°F-1.7°C 68% 1.3 mph NNE2.1 kmh NNE 3.6 mph5.8 kmh 29.82 in1009.8 mb 0.00 in0.0 mm 0.00 in0.0 mm 0.00 in0.0 mm
08:15 AM 38.3°F3.5°C 28.7°F-1.8°C 68% 0.4 mph NNE0.6 kmh NNE 2.7 mph4.3 kmh 29.82 in1009.8 mb 0.00 in0.0 mm 0.00 in0.0 mm 0.00 in0.0 mm
08:00 AM 37.9°F3.3°C 28.7°F-1.8°C 69% 1.0 mph NNE1.6 kmh NNE 4.3 mph6.9 kmh 29.82 in1009.8 mb 0.00 in0.0 mm 0.00 in0.0 mm 0.00 in0.0 mm
07:45 AM 37.8°F3.2°C 28.1°F-2.2°C 68% 2.6 mph N4.2 kmh N 6.3 mph10.1 kmh 29.82 in1009.8 mb 0.00 in0.0 mm 0.00 in0.0 mm 0.00 in0.0 mm
07:30 AM 37.9°F3.3°C 28.3°F-2.1°C 68% 2.0 mph NE3.2 kmh NE 4.3 mph6.9 kmh 29.81 in1009.5 mb 0.00 in0.0 mm 0.00 in0.0 mm 0.00 in0.0 mm
07:15 AM 37.9°F3.3°C 28.0°F-2.2°C 67% 2.3 mph NE3.7 kmh NE 4.5 mph7.2 kmh 29.81 in1009.5 mb 0.00 in0.0 mm 0.00 in0.0 mm 0.00 in0.0 mm
07:00 AM 37.9°F3.3°C 28.3°F-2.1°C 68% 2.5 mph NE4.0 kmh NE 4.5 mph7.2 kmh 29.81 in1009.5 mb 0.00 in0.0 mm 0.00 in0.0 mm 0.00 in0.0 mm
06:45 AM 37.9°F3.3°C 28.7°F-1.8°C 69% 1.9 mph NE3.1 kmh NE 4.0 mph6.4 kmh 29.81 in1009.5 mb 0.00 in0.0 mm 0.00 in0.0 mm 0.00 in0.0 mm
06:30 AM 38.3°F3.5°C 28.7°F-1.8°C 68% 1.1 mph ENE1.8 kmh ENE 2.9 mph4.7 kmh 29.82 in1009.8 mb 0.00 in0.0 mm 0.00 in0.0 mm 0.00 in0.0 mm
06:15 AM 38.8°F3.8°C 29.2°F-1.6°C 68% 1.4 mph ENE2.3 kmh ENE 2.9 mph4.7 kmh 29.81 in1009.5 mb 0.00 in0.0 mm 0.00 in0.0 mm 0.00 in0.0 mm
06:00 AM 37.6°F3.1°C 28.0°F-2.2°C 68% 0.5 mph NNW0.8 kmh NNW 1.6 mph2.6 kmh 29.81 in1009.5 mb 0.00 in0.0 mm 0.00 in0.0 mm 0.00 in0.0 mm
05:45 AM 37.9°F3.3°C 28.0°F-2.2°C 67% 0.1 mph NNW0.2 kmh NNW 1.6 mph2.6 kmh 29.81 in1009.5 mb 0.00 in0.0 mm 0.00 in0.0 mm 0.00 in0.0 mm
05:30 AM 38.5°F3.6°C 28.1°F-2.2°C 66% Calm Calm -- 29.81 in1009.5 mb 0.00 in0.0 mm 0.00 in0.0 mm 0.00 in0.0 mm
05:15 AM 39.9°F4.4°C 29.5°F-1.4°C 66% 0.1 mph NNW0.2 kmh NNW 2.0 mph3.2 kmh 29.82 in1009.8 mb 0.00 in0.0 mm 0.00 in0.0 mm 0.00 in0.0 mm
05:00 AM 39.9°F4.4°C 29.5°F-1.4°C 66% 0.7 mph ENE1.1 kmh ENE 2.0 mph3.2 kmh 29.82 in1009.8 mb 0.00 in0.0 mm 0.00 in0.0 mm 0.00 in0.0 mm
04:45 AM 39.4°F4.1°C 29.0°F-1.7°C 66% 2.0 mph ENE3.2 kmh ENE 2.9 mph4.7 kmh 29.83 in1010.2 mb 0.00 in0.0 mm 0.00 in0.0 mm 0.00 in0.0 mm
04:30 AM 38.1°F3.4°C 27.8°F-2.3°C 66% 0.5 mph NE0.8 kmh NE 2.0 mph3.2 kmh 29.83 in1010.2 mb 0.00 in0.0 mm 0.00 in0.0 mm 0.00 in0.0 mm
04:15 AM 38.8°F3.8°C 28.4°F-2.0°C 66% 2.0 mph ESE3.2 kmh ESE 3.6 mph5.8 kmh 29.84 in1010.5 mb 0.00 in0.0 mm 0.00 in0.0 mm 0.00 in0.0 mm
04:00 AM 37.8°F3.2°C 27.8°F-2.3°C 67% 1.2 mph ENE1.9 kmh ENE 3.1 mph5.0 kmh 29.83 in1010.2 mb 0.00 in0.0 mm 0.00 in0.0 mm 0.00 in0.0 mm
03:45 AM 36.9°F2.7°C 27.3°F-2.6°C 68% 2.1 mph NE3.4 kmh NE 3.1 mph5.0 kmh 29.85 in1010.8 mb 0.00 in0.0 mm 0.00 in0.0 mm 0.00 in0.0 mm
03:30 AM 37.2°F2.9°C 27.6°F-2.4°C 68% 0.7 mph NE1.1 kmh NE 2.5 mph4.0 kmh 29.85 in1010.8 mb 0.00 in0.0 mm 0.00 in0.0 mm 0.00 in0.0 mm
03:15 AM 37.4°F3.0°C 27.8°F-2.3°C 68% Calm Calm 0.9 mph1.4 kmh 29.85 in1010.8 mb 0.00 in0.0 mm 0.00 in0.0 mm 0.00 in0.0 mm
03:00 AM 37.9°F3.3°C 28.3°F-2.1°C 68% 0.2 mph NE0.3 kmh NE 1.3 mph2.1 kmh 29.86 in1011.2 mb 0.00 in0.0 mm 0.00 in0.0 mm 0.00 in0.0 mm
02:45 AM 37.2°F2.9°C 28.3°F-2.1°C 70% 2.1 mph NE3.4 kmh NE 2.9 mph4.7 kmh 29.86 in1011.2 mb 0.00 in0.0 mm 0.00 in0.0 mm 0.00 in0.0 mm
02:30 AM 36.7°F2.6°C 28.2°F-2.1°C 71% 0.5 mph NE0.8 kmh NE 1.6 mph2.6 kmh 29.87 in1011.5 mb 0.00 in0.0 mm 0.00 in0.0 mm 0.00 in0.0 mm
02:15 AM 36.3°F2.4°C 28.2°F-2.1°C 72% 1.3 mph NE2.1 kmh NE 2.9 mph4.7 kmh 29.86 in1011.2 mb 0.00 in0.0 mm 0.00 in0.0 mm 0.00 in0.0 mm
02:00 AM 36.0°F2.2°C 28.5°F-1.9°C 74% 2.4 mph NE3.9 kmh NE 3.8 mph6.1 kmh 29.87 in1011.5 mb 0.00 in0.0 mm 0.00 in0.0 mm 0.00 in0.0 mm
01:45 AM 35.8°F2.1°C 29.0°F-1.7°C 76% 1.3 mph N2.1 kmh N 2.9 mph4.7 kmh 29.87 in1011.5 mb 0.00 in0.0 mm 0.00 in0.0 mm 0.00 in0.0 mm
01:30 AM 35.2°F1.8°C 28.8°F-1.8°C 77% 1.7 mph NNW2.7 kmh NNW 2.7 mph4.3 kmh 29.86 in1011.2 mb 0.00 in0.0 mm 0.00 in0.0 mm 0.00 in0.0 mm
01:15 AM 34.9°F1.6°C 28.4°F-2.0°C 77% 0.2 mph NNW0.3 kmh NNW 2.5 mph4.0 kmh 29.87 in1011.5 mb 0.00 in0.0 mm 0.00 in0.0 mm 0.00 in0.0 mm
01:00 AM 34.7°F1.5°C 28.2°F-2.1°C 77% Calm Calm 1.1 mph1.8 kmh 29.89 in1012.2 mb 0.00 in0.0 mm 0.00 in0.0 mm 0.00 in0.0 mm
12:45 AM 35.2°F1.8°C 28.8°F-1.8°C 77% 1.1 mph NW1.8 kmh NW 3.8 mph6.1 kmh 29.89 in1012.2 mb 0.00 in0.0 mm 0.00 in0.0 mm 0.00 in0.0 mm
12:30 AM 35.2°F1.8°C 28.8°F-1.8°C 77% 1.7 mph NW2.7 kmh NW 3.1 mph5.0 kmh 29.90 in1012.5 mb 0.00 in0.0 mm 0.00 in0.0 mm 0.00 in0.0 mm
12:15 AM 35.2°F1.8°C 28.8°F-1.8°C 77% 1.0 mph NW1.6 kmh NW 2.2 mph3.5 kmh 29.90 in1012.5 mb 0.00 in0.0 mm 0.00 in0.0 mm 0.00 in0.0 mm
12:00 AM 35.4°F1.9°C 28.9°F-1.7°C 77% 0.4 mph NW0.6 kmh NW 2.5 mph4.0 kmh 29.91 in1012.9 mb 0.00 in0.0 mm 0.00 in0.0 mm 0.00 in0.0 mm